Kansai — JD3272 — position and weather

sailwx.info

Track history (hours):
 
Tides and Currents Weather Stations Pressure Air Temp Water Temp Dewpoint Dewpoint Depression Visibility Wind Speed Wind Dir Waves Ship Positions

Kansai

Last reported at 2016-Jul-27 11:33 UTC. Time now 2016-Jul-28 06:39 UTC.
Position N 35°10' E 139°45'.

Length 73 m; draft 4.2 m.

Type: Cargo ship. MMSI: 431003134.

Date/timePositionNaut miles runAvg speedWind from/ knotsBaromVisibWave heightAir tempDewpointWater temp
2016-Jul-27 11:33N 35°10' E 139°45'10 9.9
2016-Jul-27 10:33N 35°19' E 139°43'9 9.5
2016-Jul-27 09:33N 35°28' E 139°48'1110.6
2016-Jul-27 08:33N 35°36' E 139°57'5 5.1
2016-Jul-27 07:33N 35°41' E 139°57'0 0.0
2016-Jul-27 06:33N 35°41' E 139°57'0 0.0
2016-Jul-27 05:33N 35°41' E 139°57'0 0.0
2016-Jul-27 04:33N 35°41' E 139°57'0 0.0
2016-Jul-27 03:33N 35°41' E 139°57'0 0.0
2016-Jul-27 02:33N 35°41' E 139°57'0 0.0
2016-Jul-27 01:33N 35°41' E 139°57'0 0.0
2016-Jul-27 00:33N 35°41' E 139°57'0 0.0
2016-Jul-26 23:33N 35°41' E 139°57'0 0.0
2016-Jul-26 22:33N 35°41' E 139°57'0 0.0
2016-Jul-26 21:33N 35°41' E 139°57'0 0.0
2016-Jul-26 20:33N 35°41' E 139°57'0 0.0
2016-Jul-26 19:33N 35°41' E 139°57'0 0.0
2016-Jul-26 18:33N 35°41' E 139°57'0 0.0
2016-Jul-26 17:33N 35°41' E 139°57'0 0.0
2016-Jul-26 16:33N 35°41' E 139°57'0 0.0
2016-Jul-26 15:33N 35°41' E 139°57'0 0.0
2016-Jul-26 14:33N 35°41' E 139°57'0 0.0
2016-Jul-26 13:34N 35°41' E 139°57'0 0.0
2016-Jul-26 12:33N 35°41' E 139°57'0 0.0
2016-Jul-26 11:33N 35°41' E 139°57'0 0.0
2016-Jul-26 10:33N 35°41' E 139°57'0 0.0
2016-Jul-26 09:33N 35°41' E 139°57'0 0.0
2016-Jul-26 08:33N 35°41' E 139°57'0 0.0
2016-Jul-26 07:33N 35°41' E 139°57'0 0.0
2016-Jul-26 06:33N 35°41' E 139°57'0 0.0
2016-Jul-26 05:33N 35°41' E 139°57'0 0.0
2016-Jul-26 04:33N 35°41' E 139°57'0 0.0
2016-Jul-26 03:33N 35°41' E 139°57'0 0.0
2016-Jul-26 02:33N 35°41' E 139°57'0 0.0
2016-Jul-26 01:33N 35°41' E 139°57'0 0.0
2016-Jul-26 00:33N 35°41' E 139°57'0 0.0
2016-Jul-25 23:33N 35°41' E 139°57'0 0.0
2016-Jul-25 22:34N 35°41' E 139°57'0 0.1
2016-Jul-25 21:33N 35°41' E 139°58'0 0.0
2016-Jul-25 20:33N 35°41' E 139°58'0 0.0
2016-Jul-25 19:33N 35°41' E 139°58'0 0.0
2016-Jul-25 18:32N 35°41' E 139°58'0 0.0
2016-Jul-25 17:31N 35°41' E 139°58'0 0.0
2016-Jul-25 16:33N 35°41' E 139°58'0 0.0
2016-Jul-25 15:33N 35°41' E 139°58'0 0.0
2016-Jul-25 14:33N 35°41' E 139°58'0 0.0
2016-Jul-25 13:32N 35°41' E 139°58'0 0.0
2016-Jul-25 12:33N 35°41' E 139°58'0 0.0
2016-Jul-25 11:33N 35°41' E 139°58'0 0.0
2016-Jul-25 10:33N 35°41' E 139°58'0 0.0
2016-Jul-25 09:33N 35°41' E 139°58'0 0.0
2016-Jul-25 08:33N 35°41' E 139°58'0 0.0
2016-Jul-25 07:33N 35°41' E 139°58'0 0.0
2016-Jul-25 06:33N 35°41' E 139°58'0 0.0
2016-Jul-25 05:33N 35°41' E 139°58'0 0.0
2016-Jul-25 04:33N 35°41' E 139°58'0 0.0
2016-Jul-25 03:33N 35°41' E 139°58'0 0.0
2016-Jul-25 02:33N 35°41' E 139°58'0 0.0
2016-Jul-25 01:33N 35°41' E 139°58'0 0.0
2016-Jul-25 00:33N 35°41' E 139°58'0 0.0
2016-Jul-24 23:33N 35°41' E 139°58'0 0.0
2016-Jul-24 22:33N 35°41' E 139°58'0 0.0
2016-Jul-24 21:33N 35°41' E 139°58'0 0.0
2016-Jul-24 20:33N 35°41' E 139°58'0 0.0
2016-Jul-24 19:33N 35°41' E 139°58'0 0.0
2016-Jul-24 18:33N 35°41' E 139°58'0 0.0
2016-Jul-24 17:33N 35°41' E 139°58'0 0.0
2016-Jul-24 16:33N 35°41' E 139°58'0 0.0
2016-Jul-24 15:33N 35°41' E 139°58'0 0.0
2016-Jul-24 14:33N 35°41' E 139°58'0 0.0
2016-Jul-24 13:32N 35°41' E 139°58'0 0.0
2016-Jul-24 12:33N 35°41' E 139°58'0 0.0
2016-Jul-24 11:33N 35°41' E 139°58'0 0.0
2016-Jul-24 10:33N 35°41' E 139°58'0 0.0
2016-Jul-24 09:34N 35°41' E 139°57'6 6.2
2016-Jul-24 08:33N 35°35' E 139°56'1110.6
2016-Jul-24 07:33N 35°26' E 139°48'10 9.6
2016-Jul-24 06:33N 35°17' E 139°46'248 8.3
2016-Jul-23 00:33N 34°01' E 134°59'1311.1
2016-Jul-22 23:24N 34°14' E 134°58'910.4
2016-Jul-22 22:33N 34°23' E 134°60'1010.3
2016-Jul-22 21:33N 34°33' E 135°03'9 8.9
2016-Jul-22 20:33N 34°38' E 134°54'1 0.0
2016-Jul-21 08:26N 34°39' E 134°52'9 9.9
2016-Jul-21 07:33N 34°37' E 135°03'1010.0
2016-Jul-21 06:33N 34°38' E 135°15'5 4.6
2016-Jul-21 05:33N 34°42' E 135°15'0 0.0
2016-Jul-21 04:33N 34°42' E 135°15'0 0.0
2016-Jul-21 03:33N 34°42' E 135°15'0 0.0
2016-Jul-21 02:33N 34°42' E 135°15'0 0.0
2016-Jul-21 01:33N 34°42' E 135°15'0 0.0
2016-Jul-21 00:33N 34°42' E 135°15'0 0.0
2016-Jul-20 23:33N 34°42' E 135°15'2 2.1
2016-Jul-20 22:33N 34°40' E 135°15'9 9.2
2016-Jul-20 21:33N 34°35' E 135°06'1111.0
2016-Jul-20 20:31N 34°39' E 134°53'1 0.0
2016-Jul-19 11:32N 34°37' E 134°53'1111.2
2016-Jul-19 10:33N 34°32' E 135°05'232 8.3
2016-Jul-18 06:32N 35°10' E 139°44'9 9.6
2016-Jul-18 05:33N 35°19' E 139°43'1010.1
2016-Jul-18 04:33N 35°28' E 139°49'1111.3
2016-Jul-18 03:33N 35°37' E 139°57'4 3.7
2016-Jul-18 02:33N 35°41' E 139°58'0 0.0
2016-Jul-18 01:33N 35°41' E 139°58'0 0.0
2016-Jul-18 00:33N 35°41' E 139°58'0 0.0
2016-Jul-17 23:33N 35°41' E 139°58'0 0.0
2016-Jul-17 22:33N 35°41' E 139°58'0 0.0
2016-Jul-17 21:33N 35°41' E 139°58'0 0.0
2016-Jul-17 20:33N 35°41' E 139°58'0 0.0
2016-Jul-17 19:33N 35°41' E 139°58'0 0.0
2016-Jul-17 18:33N 35°41' E 139°58'0 0.0
2016-Jul-17 17:33N 35°41' E 139°58'0 0.0
2016-Jul-17 16:33N 35°41' E 139°58'0 0.0
2016-Jul-17 15:33N 35°41' E 139°58'0 0.0
2016-Jul-17 14:33N 35°41' E 139°58'0 0.0
2016-Jul-17 13:33N 35°41' E 139°58'0 0.0
2016-Jul-17 12:33N 35°41' E 139°58'  
Track history (hours):
 
Tides and Currents Weather Stations Pressure Air Temp Water Temp Dewpoint Dewpoint Depression Visibility Wind Speed Wind Dir Waves Ship Positions

Kansai

Last reported at 2016-Jul-27 11:33 UTC. Time now 2016-Jul-28 06:39 UTC.
Position N 35°10' E 139°45'.

Length 73 m; draft 4.2 m.

Type: Cargo ship. MMSI: 431003134.

Date/timePositionNaut miles runAvg speedWind from/ knotsBaromVisibWave heightAir tempDewpointWater temp
2016-Jul-27 11:33N 35°10' E 139°45'10 9.9
2016-Jul-27 10:33N 35°19' E 139°43'9 9.5
2016-Jul-27 09:33N 35°28' E 139°48'1110.6
2016-Jul-27 08:33N 35°36' E 139°57'5 5.1
2016-Jul-27 07:33N 35°41' E 139°57'0 0.0
2016-Jul-27 06:33N 35°41' E 139°57'0 0.0
2016-Jul-27 05:33N 35°41' E 139°57'0 0.0
2016-Jul-27 04:33N 35°41' E 139°57'0 0.0
2016-Jul-27 03:33N 35°41' E 139°57'0 0.0
2016-Jul-27 02:33N 35°41' E 139°57'0 0.0
2016-Jul-27 01:33N 35°41' E 139°57'0 0.0
2016-Jul-27 00:33N 35°41' E 139°57'0 0.0
2016-Jul-26 23:33N 35°41' E 139°57'0 0.0
2016-Jul-26 22:33N 35°41' E 139°57'0 0.0
2016-Jul-26 21:33N 35°41' E 139°57'0 0.0
2016-Jul-26 20:33N 35°41' E 139°57'0 0.0
2016-Jul-26 19:33N 35°41' E 139°57'0 0.0
2016-Jul-26 18:33N 35°41' E 139°57'0 0.0
2016-Jul-26 17:33N 35°41' E 139°57'0 0.0
2016-Jul-26 16:33N 35°41' E 139°57'0 0.0
2016-Jul-26 15:33N 35°41' E 139°57'0 0.0
2016-Jul-26 14:33N 35°41' E 139°57'0 0.0
2016-Jul-26 13:34N 35°41' E 139°57'0 0.0
2016-Jul-26 12:33N 35°41' E 139°57'0 0.0
2016-Jul-26 11:33N 35°41' E 139°57'0 0.0
2016-Jul-26 10:33N 35°41' E 139°57'0 0.0
2016-Jul-26 09:33N 35°41' E 139°57'0 0.0
2016-Jul-26 08:33N 35°41' E 139°57'0 0.0
2016-Jul-26 07:33N 35°41' E 139°57'0 0.0
2016-Jul-26 06:33N 35°41' E 139°57'0 0.0
2016-Jul-26 05:33N 35°41' E 139°57'0 0.0
2016-Jul-26 04:33N 35°41' E 139°57'0 0.0
2016-Jul-26 03:33N 35°41' E 139°57'0 0.0
2016-Jul-26 02:33N 35°41' E 139°57'0 0.0
2016-Jul-26 01:33N 35°41' E 139°57'0 0.0
2016-Jul-26 00:33N 35°41' E 139°57'0 0.0
2016-Jul-25 23:33N 35°41' E 139°57'0 0.0
2016-Jul-25 22:34N 35°41' E 139°57'0 0.1
2016-Jul-25 21:33N 35°41' E 139°58'0 0.0
2016-Jul-25 20:33N 35°41' E 139°58'0 0.0
2016-Jul-25 19:33N 35°41' E 139°58'0 0.0
2016-Jul-25 18:32N 35°41' E 139°58'0 0.0
2016-Jul-25 17:31N 35°41' E 139°58'0 0.0
2016-Jul-25 16:33N 35°41' E 139°58'0 0.0
2016-Jul-25 15:33N 35°41' E 139°58'0 0.0
2016-Jul-25 14:33N 35°41' E 139°58'0 0.0
2016-Jul-25 13:32N 35°41' E 139°58'0 0.0
2016-Jul-25 12:33N 35°41' E 139°58'0 0.0
2016-Jul-25 11:33N 35°41' E 139°58'0 0.0
2016-Jul-25 10:33N 35°41' E 139°58'0 0.0
2016-Jul-25 09:33N 35°41' E 139°58'0 0.0
2016-Jul-25 08:33N 35°41' E 139°58'0 0.0
2016-Jul-25 07:33N 35°41' E 139°58'0 0.0
2016-Jul-25 06:33N 35°41' E 139°58'0 0.0
2016-Jul-25 05:33N 35°41' E 139°58'0 0.0
2016-Jul-25 04:33N 35°41' E 139°58'0 0.0
2016-Jul-25 03:33N 35°41' E 139°58'0 0.0
2016-Jul-25 02:33N 35°41' E 139°58'0 0.0
2016-Jul-25 01:33N 35°41' E 139°58'0 0.0
2016-Jul-25 00:33N 35°41' E 139°58'0 0.0
2016-Jul-24 23:33N 35°41' E 139°58'0 0.0
2016-Jul-24 22:33N 35°41' E 139°58'0 0.0
2016-Jul-24 21:33N 35°41' E 139°58'0 0.0
2016-Jul-24 20:33N 35°41' E 139°58'0 0.0
2016-Jul-24 19:33N 35°41' E 139°58'0 0.0
2016-Jul-24 18:33N 35°41' E 139°58'0 0.0
2016-Jul-24 17:33N 35°41' E 139°58'0 0.0
2016-Jul-24 16:33N 35°41' E 139°58'0 0.0
2016-Jul-24 15:33N 35°41' E 139°58'0 0.0
2016-Jul-24 14:33N 35°41' E 139°58'0 0.0
2016-Jul-24 13:32N 35°41' E 139°58'0 0.0
2016-Jul-24 12:33N 35°41' E 139°58'0 0.0
2016-Jul-24 11:33N 35°41' E 139°58'0 0.0
2016-Jul-24 10:33N 35°41' E 139°58'0 0.0
2016-Jul-24 09:34N 35°41' E 139°57'6 6.2
2016-Jul-24 08:33N 35°35' E 139°56'1110.6
2016-Jul-24 07:33N 35°26' E 139°48'10 9.6
2016-Jul-24 06:33N 35°17' E 139°46'248 8.3
2016-Jul-23 00:33N 34°01' E 134°59'1311.1
2016-Jul-22 23:24N 34°14' E 134°58'910.4
2016-Jul-22 22:33N 34°23' E 134°60'1010.3
2016-Jul-22 21:33N 34°33' E 135°03'9 8.9
2016-Jul-22 20:33N 34°38' E 134°54'1 0.0
2016-Jul-21 08:26N 34°39' E 134°52'9 9.9
2016-Jul-21 07:33N 34°37' E 135°03'1010.0
2016-Jul-21 06:33N 34°38' E 135°15'5 4.6
2016-Jul-21 05:33N 34°42' E 135°15'0 0.0
2016-Jul-21 04:33N 34°42' E 135°15'0 0.0
2016-Jul-21 03:33N 34°42' E 135°15'0 0.0
2016-Jul-21 02:33N 34°42' E 135°15'0 0.0
2016-Jul-21 01:33N 34°42' E 135°15'0 0.0
2016-Jul-21 00:33N 34°42' E 135°15'0 0.0
2016-Jul-20 23:33N 34°42' E 135°15'2 2.1
2016-Jul-20 22:33N 34°40' E 135°15'9 9.2
2016-Jul-20 21:33N 34°35' E 135°06'1111.0
2016-Jul-20 20:31N 34°39' E 134°53'1 0.0
2016-Jul-19 11:32N 34°37' E 134°53'1111.2
2016-Jul-19 10:33N 34°32' E 135°05'232 8.3
2016-Jul-18 06:32N 35°10' E 139°44'9 9.6
2016-Jul-18 05:33N 35°19' E 139°43'1010.1
2016-Jul-18 04:33N 35°28' E 139°49'1111.3
2016-Jul-18 03:33N 35°37' E 139°57'4 3.7
2016-Jul-18 02:33N 35°41' E 139°58'0 0.0
2016-Jul-18 01:33N 35°41' E 139°58'0 0.0
2016-Jul-18 00:33N 35°41' E 139°58'0 0.0
2016-Jul-17 23:33N 35°41' E 139°58'0 0.0
2016-Jul-17 22:33N 35°41' E 139°58'0 0.0
2016-Jul-17 21:33N 35°41' E 139°58'0 0.0
2016-Jul-17 20:33N 35°41' E 139°58'0 0.0
2016-Jul-17 19:33N 35°41' E 139°58'0 0.0
2016-Jul-17 18:33N 35°41' E 139°58'0 0.0
2016-Jul-17 17:33N 35°41' E 139°58'0 0.0
2016-Jul-17 16:33N 35°41' E 139°58'0 0.0
2016-Jul-17 15:33N 35°41' E 139°58'0 0.0
2016-Jul-17 14:33N 35°41' E 139°58'0 0.0
2016-Jul-17 13:33N 35°41' E 139°58'0 0.0
2016-Jul-17 12:33N 35°41' E 139°58'  

Dump ship's entire track history